Time;durP1;ratioP1;P1;durP2;ratioP2;P2;SDS_P1;SDS_P2;PMS_P1;PMS_P2;Temp;Humidity;BMP_temperature;BMP_pressure;BME280_temperature;BME280_humidity;BME280_pressure;Samples;Min_cycle;Max_cycle;Signal;HPM_P1;HPM_P2
2022/09/04 00:00:59;;;;;;;8.57;4.30;;;;;;;23.02;43.61;101400.16;5108961;28;21039;-77
2022/09/04 00:03:40;;;;;;;7.97;4.32;;;;;;;23.02;43.24;101401.91;5109988;28;20078;-76
2022/09/04 00:06:16;;;;;;;7.10;3.80;;;;;;;23.01;43.68;101403.66;5109529;28;20043;-78
2022/09/04 00:08:54;;;;;;;9.32;3.92;;;;;;;23.01;43.25;101406.28;5108418;28;20048;-77
2022/09/04 00:13:56;;;;;;;5.50;3.65;;;;;;;23.02;43.41;101409.78;5108332;28;20051;-75
2022/09/04 00:19:20;;;;;;;7.68;4.45;;;;;;;23.01;43.53;101411.53;5108587;28;20089;-75
2022/09/04 00:21:59;;;;;;;8.52;4.13;;;;;;;23.01;43.41;101414.16;5107033;28;21146;-77
2022/09/04 00:24:34;;;;;;;11.43;4.40;;;;;;;23.01;43.46;101411.53;5091389;28;20054;-76
2022/09/04 00:27:16;;;;;;;8.75;3.88;;;;;;;22.99;43.51;101413.31;5109523;28;20052;-74
2022/09/04 00:30:01;;;;;;;7.47;3.83;;;;;;;22.99;43.84;101414.19;5106752;28;20450;-75
2022/09/04 00:32:58;;;;;;;6.05;3.45;;;;;;;23.01;43.53;101427.28;5090485;28;20101;-75
2022/09/04 00:35:30;;;;;;;6.13;3.45;;;;;;;22.98;43.72;101419.47;5109077;28;20398;-75
2022/09/04 00:38:09;;;;;;;6.22;3.22;;;;;;;23.00;43.56;101423.81;5090758;28;20097;-75
2022/09/04 00:40:50;;;;;;;9.50;3.40;;;;;;;22.98;43.57;101429.97;5090188;28;20481;-74
2022/09/04 00:46:20;;;;;;;7.28;3.63;;;;;;;22.97;43.59;101434.34;5108117;28;20783;-76
2022/09/04 00:48:51;;;;;;;5.70;3.42;;;;;;;22.97;43.83;101444.84;5090048;28;20059;-74
2022/09/04 00:51:22;;;;;;;6.10;3.47;;;;;;;22.97;43.79;101443.97;5109916;28;20043;-76
2022/09/04 00:57:12;;;;;;;5.35;3.13;;;;;;;22.96;43.73;101440.47;5107384;28;21224;-75
2022/09/04 00:59:53;;;;;;;5.43;3.17;;;;;;;22.97;43.52;101441.34;5089482;28;20485;-75
2022/09/04 01:05:08;;;;;;;6.47;3.20;;;;;;;22.95;43.29;101453.63;5107651;28;20044;-75
2022/09/04 01:07:42;;;;;;;6.30;2.90;;;;;;;22.96;43.69;101455.38;5107521;28;20051;-75
2022/09/04 01:12:59;;;;;;;7.53;3.20;;;;;;;22.95;43.35;101464.13;5107558;28;20048;-76
2022/09/04 01:15:37;;;;;;;4.95;2.95;;;;;;;22.95;43.30;101464.13;5108285;28;20047;-75
2022/09/04 01:21:05;;;;;;;4.75;2.97;;;;;;;22.95;43.30;101479.88;5107075;28;20039;-74
2022/09/04 01:23:49;;;;;;;;;;;;;;;22.94;43.28;101480.78;5108027;28;20124;-75
2022/09/04 01:29:23;;;;;;;7.20;2.80;;;;;;;22.94;43.18;101486.91;5098375;28;20044;-76
2022/09/04 01:32:00;;;;;;;5.55;2.67;;;;;;;22.92;43.45;101486.06;5089077;28;20104;-77
2022/09/04 01:35:00;;;;;;;7.30;3.25;;;;;;;22.93;43.43;101482.56;5089410;28;20047;-76
2022/09/04 01:37:53;;;;;;;5.68;2.90;;;;;;;22.93;43.01;101486.94;5107222;28;20040;-75
2022/09/04 01:42:54;;;;;;;5.80;2.63;;;;;;;22.93;43.53;101486.94;5106649;28;20290;-75
2022/09/04 01:47:50;;;;;;;3.95;2.80;;;;;;;22.92;43.29;101485.22;5107243;28;20734;-75
2022/09/04 01:53:04;;;;;;;4.38;2.65;;;;;;;22.91;43.23;101483.50;5106830;28;20044;-76
2022/09/04 01:55:43;;;;;;;4.97;2.90;;;;;;;22.90;43.31;101477.38;5106986;28;20532;-75
2022/09/04 02:01:04;;;;;;;3.97;2.95;;;;;;;22.90;43.60;101487.00;5106338;28;20643;-77
2022/09/04 02:03:45;;;;;;;4.05;2.55;;;;;;;22.91;43.17;101486.13;5088435;28;20043;-76
2022/09/04 02:08:54;;;;;;;4.63;2.78;;;;;;;22.90;43.52;101484.38;5106759;28;20052;-75
2022/09/04 02:14:13;;;;;;;4.57;3.00;;;;;;;22.89;43.39;101488.78;5097076;28;20051;-75
2022/09/04 02:16:57;;;;;;;5.30;3.00;;;;;;;22.90;43.46;101489.63;5104375;28;20044;-76
2022/09/04 02:19:52;;;;;;;4.50;2.70;;;;;;;22.89;43.60;101495.78;5089469;28;20177;-75
2022/09/04 02:25:17;;;;;;;4.13;2.75;;;;;;;22.89;43.16;101495.78;5106307;28;21188;-76
2022/09/04 02:27:55;;;;;;;5.35;3.00;;;;;;;22.90;43.27;101497.50;5106134;28;20151;-77
2022/09/04 02:30:20;;;;;;;4.18;2.90;;;;;;;22.91;43.37;101504.50;5089825;28;20565;-76
2022/09/04 02:33:07;;;;;;;5.28;3.38;;;;;;;22.89;43.50;101499.28;5087918;28;20147;-75
2022/09/04 02:35:48;;;;;;;5.20;3.15;;;;;;;22.91;43.70;101505.34;5087374;28;20047;-77
2022/09/04 02:40:49;;;;;;;4.07;3.08;;;;;;;22.90;43.63;101500.13;5106152;28;20052;-75
2022/09/04 02:46:05;;;;;;;4.97;2.72;;;;;;;22.90;43.80;101505.38;5105964;28;20047;-76
2022/09/04 02:48:59;;;;;;;7.00;3.38;;;;;;;22.87;43.71;101516.81;5104603;28;20497;-76
2022/09/04 02:51:52;;;;;;;4.50;3.10;;;;;;;22.87;43.89;101514.19;5089157;28;20054;-75
2022/09/04 02:54:23;;;;;;;4.82;3.35;;;;;;;22.88;43.61;101523.78;5088749;28;20101;-75
2022/09/04 02:57:18;;;;;;;5.15;3.40;;;;;;;22.88;43.55;101517.66;5106241;28;20048;-76
2022/09/04 03:00:08;;;;;;;4.55;2.90;;;;;;;22.88;43.92;101515.03;5104482;28;20062;-76
2022/09/04 03:02:47;;;;;;;4.22;3.13;;;;;;;22.87;43.86;101524.69;5085659;28;20040;-78
2022/09/04 03:05:21;;;;;;;5.38;3.33;;;;;;;22.87;43.75;101526.44;5108289;28;20055;-74
2022/09/04 03:08:12;;;;;;;4.18;3.30;;;;;;;22.88;43.67;101525.53;5087377;28;20079;-76
2022/09/04 03:10:49;;;;;;;4.03;3.22;;;;;;;22.88;43.91;101517.66;5076649;28;20061;-76
2022/09/04 03:16:16;;;;;;;5.00;3.45;;;;;;;22.88;43.74;101522.91;5042364;28;20373;-79
2022/09/04 03:18:54;;;;;;;4.30;2.80;;;;;;;22.86;43.99;101524.69;5028386;28;20045;-79
2022/09/04 03:21:24;;;;;;;3.80;2.90;;;;;;;22.86;43.92;101527.31;5027010;28;20049;-79
2022/09/04 03:24:01;;;;;;;3.85;3.20;;;;;;;22.85;43.67;101533.47;5043497;28;20053;-79
2022/09/04 03:29:07;;;;;;;4.00;3.08;;;;;;;22.85;43.91;101536.97;5036632;28;20079;-78
2022/09/04 03:32:14;;;;;;;5.47;3.63;;;;;;;22.82;43.96;101536.16;5028422;28;20060;-76
2022/09/04 03:34:52;;;;;;;3.92;3.50;;;;;;;22.82;44.24;101541.41;5043897;28;20111;-77
2022/09/04 03:46:04;;;;;;;3.65;3.17;;;;;;;22.83;44.14;101554.50;5028166;28;20068;-77
2022/09/04 03:51:14;;;;;;;4.70;3.30;;;;;;;22.83;44.16;101556.25;5044857;28;20567;-76
2022/09/04 03:53:47;;;;;;;5.97;3.28;;;;;;;22.83;44.00;101559.75;5027048;28;20447;-79
2022/09/04 03:59:03;;;;;;;5.43;3.58;;;;;;;22.83;44.06;101566.75;5045064;28;20344;-77
2022/09/04 04:07:06;;;;;;;5.03;3.40;;;;;;;22.83;44.07;101572.00;5037929;28;20080;-80
2022/09/04 04:10:07;;;;;;;5.13;3.50;;;;;;;22.79;44.10;101566.81;5039391;28;20105;-80
2022/09/04 04:13:11;;;;;;;5.50;3.40;;;;;;;22.80;44.08;101571.19;5033184;28;20053;-79
2022/09/04 04:15:55;;;;;;;;;;;;;;;22.80;44.24;101565.94;5029045;28;20045;-80
2022/09/04 04:18:31;;;;;;;5.10;3.22;;;;;;;22.80;44.30;101567.69;5029758;28;19921;-79
2022/09/04 04:21:04;;;;;;;4.53;3.15;;;;;;;22.81;44.01;101572.03;5013047;28;20107;-79
2022/09/04 04:26:14;;;;;;;3.97;3.30;;;;;;;22.82;44.22;101580.75;5042619;28;20053;-78
2022/09/04 04:29:01;;;;;;;5.18;3.70;;;;;;;22.80;43.75;101576.41;5035911;28;20060;-78
2022/09/04 04:34:06;;;;;;;5.72;3.53;;;;;;;22.79;43.89;101585.19;5025248;28;20205;-78
2022/09/04 04:36:46;;;;;;;5.53;3.70;;;;;;;22.79;44.03;101582.56;5008579;28;20046;-79
2022/09/04 04:42:04;;;;;;;4.45;3.50;;;;;;;22.79;43.82;101586.94;5037695;28;20053;-79
2022/09/04 04:47:24;;;;;;;6.43;4.15;;;;;;;22.76;44.14;101584.38;5036452;28;20045;-78
2022/09/04 04:49:55;;;;;;;;;;;;;;;22.77;44.14;101591.34;5024888;28;20037;-80
2022/09/04 04:55:12;;;;;;;6.00;4.10;;;;;;;22.74;44.30;101600.16;5042631;28;20049;-79
2022/09/04 04:58:16;;;;;;;7.35;4.30;;;;;;;22.74;44.25;101600.16;5017531;28;20376;-80
2022/09/04 05:00:54;;;;;;;5.63;4.53;;;;;;;22.74;44.42;101601.91;5014837;28;20056;-80
2022/09/04 05:06:11;;;;;;;5.68;4.18;;;;;;;22.75;44.10;101615.00;5036005;28;20787;-79
2022/09/04 05:08:51;;;;;;;4.93;4.40;;;;;;;22.75;44.26;101611.50;5030918;28;20056;-80
2022/09/04 05:14:07;;;;;;;5.32;4.40;;;;;;;22.74;44.30;101628.16;5041774;28;21215;-78
2022/09/04 05:16:56;;;;;;;6.72;4.40;;;;;;;22.75;43.97;101630.72;5039072;28;20060;-79
2022/09/04 05:22:06;;;;;;;5.50;3.90;;;;;;;22.75;44.25;101638.59;5025575;28;20268;-79
2022/09/04 05:24:43;;;;;;;5.10;4.35;;;;;;;22.74;43.96;101642.13;5018180;28;20136;-79
2022/09/04 05:30:07;;;;;;;6.32;4.18;;;;;;;22.74;44.34;101644.75;5035325;28;20147;-81
2022/09/04 05:33:02;;;;;;;6.95;4.53;;;;;;;22.77;44.11;101642.06;5024160;28;20037;-80
2022/09/04 05:38:07;;;;;;;4.60;4.10;;;;;;;22.83;44.08;101654.22;5032401;28;21192;-79
2022/09/04 05:40:55;;;;;;;5.40;4.00;;;;;;;22.87;43.69;101650.66;5025872;28;20041;-79
2022/09/04 05:43:29;;;;;;;4.35;3.70;;;;;;;22.89;43.80;101654.09;5022224;28;20054;-80
2022/09/04 05:46:05;;;;;;;5.60;3.67;;;;;;;22.90;43.87;101654.97;5019922;28;20052;-80
2022/09/04 05:51:31;;;;;;;5.82;5.22;;;;;;;22.79;44.77;101663.03;5059752;23;20064;-79
2022/09/04 05:54:22;;;;;;;12.25;7.35;;;;;;;22.69;45.20;101666.72;5037682;28;20053;-83
2022/09/04 05:57:25;;;;;;;11.48;9.90;;;;;;;22.65;45.78;101668.53;5029999;28;20132;-80
2022/09/04 05:59:51;;;;;;;13.25;10.00;;;;;;;22.59;45.93;101666.03;5011851;28;20049;-79
2022/09/04 06:02:25;;;;;;;13.95;10.80;;;;;;;22.54;46.36;101667.88;5013618;28;20056;-79
2022/09/04 06:05:18;;;;;;;13.05;10.60;;;;;;;22.51;46.56;101674.00;5011467;28;21447;-79
2022/09/04 06:08:00;;;;;;;18.30;11.52;;;;;;;22.53;46.52;101672.22;5011355;28;20380;-79
2022/09/04 06:10:28;;;;;;;16.23;11.65;;;;;;;22.54;46.48;101678.38;5031864;28;20069;-79
2022/09/04 06:12:53;;;;;;;15.98;11.82;;;;;;;22.52;46.82;101672.28;5011803;28;20099;-79
2022/09/04 06:18:10;;;;;;;14.98;11.93;;;;;;;22.51;47.10;101675.78;5028903;28;20049;-79
2022/09/04 06:20:44;;;;;;;14.50;12.20;;;;;;;22.52;47.13;101678.38;5039115;28;20044;-80
2022/09/04 06:26:16;;;;;;;13.20;11.90;;;;;;;22.61;47.08;101679.13;5031918;28;20063;-80
2022/09/04 06:29:19;;;;;;;17.63;13.25;;;;;;;22.59;47.01;101684.38;5031407;28;20049;-79
2022/09/04 06:32:19;;;;;;;16.13;13.93;;;;;;;22.53;47.60;101677.47;5012592;28;20435;-80
2022/09/04 06:35:05;;;;;;;15.82;13.68;;;;;;;22.57;47.60;101681.78;5038818;28;20140;-80
2022/09/04 06:40:12;;;;;;;16.15;13.98;;;;;;;22.57;47.84;101688.78;5032270;28;20060;-79
2022/09/04 06:42:59;;;;;;;18.75;14.63;;;;;;;22.52;47.75;101688.00;5014865;28;20117;-81
2022/09/04 06:45:25;;;;;;;17.67;15.80;;;;;;;22.57;47.92;101688.78;5032853;28;20132;-80
2022/09/04 06:48:12;;;;;;;16.92;15.25;;;;;;;22.58;48.08;101694.03;5012132;28;20101;-80
2022/09/04 06:50:50;;;;;;;16.88;14.43;;;;;;;22.66;48.15;101698.25;5018662;28;20566;-80
2022/09/04 06:59:20;;;;;;;19.20;15.95;;;;;;;22.64;48.65;101706.16;5035530;28;20068;-80
2022/09/04 07:02:00;;;;;;;18.67;16.88;;;;;;;22.65;48.75;101704.41;5031152;28;20053;-80
2022/09/04 07:04:31;;;;;;;19.02;16.45;;;;;;;22.67;48.46;101699.97;5032754;28;20407;-80
2022/09/04 07:07:00;;;;;;;20.55;18.42;;;;;;;22.66;48.87;101712.25;5011019;28;20052;-80
2022/09/04 07:12:17;;;;;;;18.75;16.80;;;;;;;22.76;48.75;101712.97;5053985;28;21155;-79
2022/09/04 07:15:24;;;;;;;19.58;17.48;;;;;;;22.78;48.95;101716.44;5050485;28;20137;-79
2022/09/04 07:21:04;;;;;;;22.92;18.35;;;;;;;22.81;49.21;101726.84;5060880;28;20117;-80
2022/09/04 07:26:56;;;;;;;21.42;18.20;;;;;;;22.89;49.71;101727.59;5026450;28;20060;-83
2022/09/04 07:32:19;;;;;;;21.08;18.73;;;;;;;22.94;49.98;101731.00;4794592;28;7041636;-75
2022/09/04 07:35:01;;;;;;;27.17;18.45;;;;;;;22.95;49.75;101732.75;5026969;28;20045;-77
2022/09/04 07:40:08;;;;;;;25.80;17.13;;;;;;;23.04;49.71;101729.13;5031020;28;20053;-77
2022/09/04 07:42:41;;;;;;;23.35;17.75;;;;;;;23.04;49.53;101736.09;5030109;28;20442;-79
2022/09/04 07:45:13;;;;;;;;;;;;;;;22.99;50.03;101738.78;5030567;28;20107;-79
2022/09/04 07:47:44;;;;;;;21.73;19.42;;;;;;;22.99;50.18;101731.78;5047030;28;20389;-79
2022/09/04 07:50:17;;;;;;;20.85;18.75;;;;;;;23.03;49.78;101737.00;5030858;28;20091;-79
2022/09/04 07:53:07;;;;;;;19.17;17.25;;;;;;;23.07;50.00;101742.19;5046329;28;20057;-79
2022/09/04 07:55:32;;;;;;;19.50;17.67;;;;;;;23.10;49.43;101749.97;5029803;28;20045;-79
2022/09/04 07:58:01;;;;;;;24.90;19.13;;;;;;;23.06;50.52;101758.84;5029636;28;20574;-79
2022/09/04 08:00:29;;;;;;;22.77;18.98;;;;;;;23.07;50.49;101757.94;5049143;28;20383;-79
2022/09/04 08:03:20;;;;;;;19.00;16.80;;;;;;;23.11;49.93;101762.22;5032866;28;20136;-79
2022/09/04 08:06:21;;;;;;;20.95;15.20;;;;;;;23.15;50.07;101760.44;5032309;28;20045;-79
2022/09/04 08:09:22;;;;;;;22.33;17.05;;;;;;;23.17;50.33;101764.75;5011261;28;20080;-79
2022/09/04 08:12:13;;;;;;;21.15;17.50;;;;;;;23.12;50.61;101766.56;5050122;28;20048;-79
2022/09/04 08:14:52;;;;;;;21.13;16.35;;;;;;;23.15;50.72;101765.69;5032026;28;20073;-78
2022/09/04 08:20:10;;;;;;;17.35;14.32;;;;;;;23.20;50.45;101774.31;5033968;28;20057;-80
2022/09/04 08:22:42;;;;;;;19.23;15.02;;;;;;;23.22;50.59;101779.56;5032854;28;20060;-80
2022/09/04 08:25:13;;;;;;;16.17;13.70;;;;;;;23.24;50.80;101783.88;5051540;28;20046;-79
2022/09/04 08:27:48;;;;;;;18.23;15.52;;;;;;;23.23;50.74;101781.28;5049063;28;20048;-79
2022/09/04 08:30:18;;;;;;;18.40;15.50;;;;;;;23.22;51.08;101783.03;5028443;28;20403;-78
2022/09/04 08:33:09;;;;;;;16.17;14.07;;;;;;;23.24;51.29;101788.28;5049780;28;20048;-78
2022/09/04 08:35:41;;;;;;;14.95;13.25;;;;;;;23.28;50.44;101792.56;5051095;28;20041;-78
2022/09/04 08:38:12;;;;;;;15.48;12.52;;;;;;;23.27;50.84;101796.09;5051084;28;20076;-78
2022/09/04 08:41:18;;;;;;;15.55;12.27;;;;;;;23.28;50.83;101795.19;5050168;28;20060;-79
2022/09/04 08:44:14;;;;;;;13.50;9.82;;;;;;;23.30;50.63;101799.53;5031845;28;20088;-83
2022/09/04 08:47:11;;;;;;;14.43;11.38;;;;;;;23.32;50.37;101797.75;5031774;28;20049;-83
2022/09/04 08:50:15;;;;;;;16.45;12.30;;;;;;;23.35;50.68;101797.69;5030031;28;20053;-82
2022/09/04 08:53:17;;;;;;;16.55;13.13;;;;;;;23.41;49.88;101804.59;5031219;28;20052;-83
2022/09/04 08:56:05;;;;;;;18.20;14.18;;;;;;;23.38;50.52;101800.22;5029871;28;20052;-81
2022/09/04 09:01:15;;;;;;;20.67;16.77;;;;;;;23.44;50.63;101803.66;5032655;28;20236;-80
2022/09/04 09:03:51;;;;;;;19.45;17.25;;;;;;;23.40;50.94;101803.69;5012660;28;20055;-78
2022/09/04 09:06:25;;;;;;;21.17;18.55;;;;;;;23.37;51.73;101801.16;5033374;28;20064;-79
2022/09/04 09:08:53;;;;;;;22.58;17.60;;;;;;;23.42;51.00;101795.81;5048923;28;20077;-79
2022/09/04 09:14:26;;;;;;;22.25;18.33;;;;;;;23.40;50.99;101795.81;5032761;28;20384;-78
2022/09/04 09:17:12;;;;;;;21.73;18.17;;;;;;;23.38;51.26;101792.34;5031347;28;20068;-79
2022/09/04 09:19:38;;;;;;;20.25;18.25;;;;;;;23.35;51.93;101804.69;5047018;28;20103;-78
2022/09/04 09:22:09;;;;;;;23.15;19.42;;;;;;;23.35;52.16;101802.94;5030029;28;20045;-77
2022/09/04 09:25:12;;;;;;;21.05;18.30;;;;;;;23.36;52.20;101803.78;5012666;28;20189;-78
2022/09/04 09:27:56;;;;;;;19.90;17.90;;;;;;;23.36;52.13;101807.28;5030530;28;20114;-79
2022/09/04 09:30:22;;;;;;;18.20;16.33;;;;;;;23.39;51.83;101806.38;5050731;28;20049;-78
2022/09/04 09:32:57;;;;;;;17.15;15.35;;;;;;;23.40;51.75;101808.09;5048679;28;20103;-78
2022/09/04 09:38:18;;;;;;;20.40;17.05;;;;;;;23.35;53.14;101807.31;5048632;28;20045;-78
2022/09/04 09:41:05;;;;;;;18.15;14.68;;;;;;;23.42;52.17;101803.69;5021497;28;20048;-78
2022/09/04 09:46:31;;;;;;;19.50;15.40;;;;;;;23.39;52.44;101807.25;5047664;28;20100;-78
2022/09/04 09:48:59;;;;;;;18.83;15.73;;;;;;;23.45;52.55;101806.25;5016401;28;20306;-77
2022/09/04 09:54:17;;;;;;;18.17;14.40;;;;;;;23.49;52.02;101812.31;5048819;28;20247;-78
2022/09/04 09:57:19;;;;;;;17.48;15.50;;;;;;;23.50;52.26;101807.03;5030510;28;20053;-79
2022/09/04 10:00:20;;;;;;;16.38;14.63;;;;;;;23.49;52.12;101809.69;5047983;28;20056;-77
2022/09/04 10:02:59;;;;;;;17.95;13.70;;;;;;;23.51;52.12;101808.75;5047726;28;20572;-78
2022/09/04 10:11:26;;;;;;;19.88;15.27;;;;;;;23.56;52.19;101811.28;5067735;28;20105;-77
2022/09/04 10:14:29;;;;;;;16.70;14.75;;;;;;;23.56;51.98;101812.19;5067557;28;20057;-77
2022/09/04 10:17:12;;;;;;;18.65;15.07;;;;;;;23.57;52.26;101807.78;5046269;28;20053;-77
2022/09/04 10:19:45;;;;;;;18.45;15.07;;;;;;;23.60;52.33;101813.84;5065881;28;20138;-78
2022/09/04 10:22:29;;;;;;;17.15;14.95;;;;;;;23.62;52.10;101814.66;5069994;28;20394;-77
2022/09/04 10:25:16;;;;;;;16.80;14.73;;;;;;;23.65;51.94;101818.13;5046060;28;20132;-77
2022/09/04 10:28:00;;;;;;;18.58;15.90;;;;;;;23.59;53.02;101813.88;5065773;28;20056;-77
2022/09/04 10:33:22;;;;;;;18.25;13.95;;;;;;;23.65;52.22;101820.75;5067935;28;20041;-77
2022/09/04 10:35:54;;;;;;;20.13;15.98;;;;;;;23.65;52.23;101819.03;5067370;28;20273;-78
2022/09/04 10:38:26;;;;;;;18.20;15.93;;;;;;;23.68;52.11;101818.09;5069697;28;20108;-78
2022/09/04 10:44:11;;;;;;;;;;;;;;;23.70;51.95;101824.19;5068134;28;20083;-76
2022/09/04 10:46:45;;;;;;;16.83;12.57;;;;;;;23.70;52.22;101825.03;5068127;28;19967;-77
2022/09/04 10:49:30;;;;;;;14.70;12.15;;;;;;;23.72;51.82;101827.66;5069486;28;20074;-78
2022/09/04 10:52:29;;;;;;;13.00;10.30;;;;;;;23.78;51.42;101822.31;5045857;28;20501;-76
2022/09/04 10:54:57;;;;;;;12.70;11.40;;;;;;;23.76;52.19;101827.59;5066694;28;20044;-77
2022/09/04 11:00:13;;;;;;;13.48;10.60;;;;;;;23.78;51.61;101825.78;5050735;28;20086;-79
2022/09/04 11:03:02;;;;;;;11.40;8.68;;;;;;;23.76;51.90;101824.09;5049072;28;20045;-76
2022/09/04 11:08:08;;;;;;;14.18;9.98;;;;;;;23.80;51.84;101818.75;5047606;28;20045;-76
2022/09/04 11:10:33;;;;;;;11.00;8.27;;;;;;;23.83;51.32;101828.31;5030401;28;20073;-76
2022/09/04 11:15:58;;;;;;;10.70;8.35;;;;;;;23.84;51.33;101832.66;5047402;28;20159;-76
2022/09/04 11:21:14;;;;;;;13.35;9.25;;;;;;;23.80;51.71;101831.00;5047490;28;20049;-77
2022/09/04 11:24:04;;;;;;;11.10;9.15;;;;;;;23.79;51.44;101827.50;5046707;28;20414;-76
2022/09/04 11:26:32;;;;;;;9.05;6.85;;;;;;;23.79;51.19;101824.88;5048890;28;20128;-76
2022/09/04 11:29:09;;;;;;;8.95;7.53;;;;;;;23.84;51.03;101829.19;5029714;28;20056;-76
2022/09/04 11:31:43;;;;;;;9.27;7.72;;;;;;;23.84;50.99;101826.56;5030067;28;20044;-76
2022/09/04 11:37:01;;;;;;;14.40;12.32;;;;;;;23.80;52.13;101831.00;5042760;28;20114;-77
2022/09/04 11:42:23;;;;;;;15.48;13.02;;;;;;;23.81;52.58;101825.72;5054320;28;20053;-76
2022/09/04 11:44:57;;;;;;;14.50;12.45;;;;;;;23.81;52.03;101825.72;5050762;28;20045;-76
2022/09/04 11:47:31;;;;;;;12.37;11.10;;;;;;;23.84;52.17;101824.78;5008671;28;1266445;-77
2022/09/04 11:50:19;;;;;;;12.85;11.20;;;;;;;23.84;52.21;101827.41;5043029;28;20051;-76
2022/09/04 11:53:22;;;;;;;13.70;12.23;;;;;;;23.87;52.14;101821.25;5032711;28;20411;-76
2022/09/04 11:56:04;;;;;;;12.15;10.75;;;;;;;23.85;51.70;101818.66;5050627;28;20040;-76
2022/09/04 12:01:27;;;;;;;16.40;12.65;;;;;;;23.87;52.84;101827.38;5050670;28;20751;-75
2022/09/04 12:04:29;;;;;;;16.98;14.98;;;;;;;23.87;53.19;101824.75;5050556;28;20479;-75
2022/09/04 12:07:14;;;;;;;15.70;14.07;;;;;;;23.91;53.03;101817.63;5050566;28;20049;-75
2022/09/04 12:10:17;;;;;;;20.65;13.75;;;;;;;23.88;52.84;101813.31;5050321;28;20144;-75
2022/09/04 12:12:48;;;;;;;18.05;14.60;;;;;;;23.86;52.82;101823.00;5031989;28;20048;-77
2022/09/04 12:18:11;;;;;;;18.10;13.35;;;;;;;23.94;52.43;101830.75;5042290;28;21889;-84
2022/09/04 12:20:39;;;;;;;19.38;16.52;;;;;;;23.97;52.94;101825.41;5022024;28;20563;-80
2022/09/04 12:23:29;;;;;;;20.23;15.93;;;;;;;23.95;52.96;101829.81;5021794;28;20144;-79
2022/09/04 12:26:21;;;;;;;19.88;16.90;;;;;;;23.93;52.63;101829.88;5049966;28;20704;-77
2022/09/04 12:29:24;;;;;;;24.02;15.52;;;;;;;23.98;52.63;101835.03;5032173;28;20052;-76
2022/09/04 12:32:12;;;;;;;20.25;14.73;;;;;;;23.99;53.45;101832.34;5032002;28;20550;-77
2022/09/04 12:34:37;;;;;;;17.83;13.43;;;;;;;23.99;54.40;101837.63;5032440;28;20053;-78
2022/09/04 12:37:20;;;;;;;16.60;13.98;;;;;;;24.00;56.99;101841.13;5051551;28;20052;-75
2022/09/04 12:40:09;;;;;;;22.25;15.15;;;;;;;23.98;55.78;101845.56;5049821;28;20118;-75
2022/09/04 12:43:15;;;;;;;19.55;15.93;;;;;;;23.82;60.03;101844.97;5050443;28;20562;-76
2022/09/04 12:45:46;;;;;;;18.75;14.05;;;;;;;23.84;57.72;101839.69;5030709;28;20394;-75
2022/09/04 12:51:02;;;;;;;20.48;14.23;;;;;;;23.82;58.17;101844.97;5049616;28;21189;-75
2022/09/04 12:56:21;;;;;;;15.05;12.80;;;;;;;23.83;56.97;101845.88;5041021;28;21276;-76
2022/09/04 12:59:08;;;;;;;13.82;12.23;;;;;;;23.81;57.73;101851.16;5031347;28;20044;-75
2022/09/04 13:02:06;;;;;;;15.57;13.48;;;;;;;23.72;59.23;101846.91;5032540;28;20499;-79
2022/09/04 13:04:54;;;;;;;18.50;13.23;;;;;;;23.63;61.13;101847.09;5028107;28;20049;-79
2022/09/04 13:10:31;;;;;;;15.95;13.07;;;;;;;23.03;64.41;101856.00;5049203;28;20060;-75
2022/09/04 13:13:13;;;;;;;14.85;12.98;;;;;;;22.98;64.37;101856.03;5049137;28;20056;-76
2022/09/04 13:15:45;;;;;;;;;;;;;;;22.90;65.01;101867.56;5049052;28;20045;-75
2022/09/04 13:18:15;;;;;;;14.00;11.25;;;;;;;22.87;65.28;101859.75;5051596;28;19920;-74
2022/09/04 13:21:07;;;;;;;13.27;10.85;;;;;;;22.89;65.02;101871.09;5048940;28;20045;-75
2022/09/04 13:24:07;;;;;;;11.55;9.98;;;;;;;22.87;64.98;101865.00;5049961;28;20052;-75
2022/09/04 13:26:59;;;;;;;11.23;9.18;;;;;;;22.85;63.58;101865.00;5031305;28;20045;-75
2022/09/04 13:32:23;;;;;;;10.40;8.15;;;;;;;22.86;63.39;101868.50;5040687;28;20659;-75
2022/09/04 13:35:30;;;;;;;10.30;7.60;;;;;;;22.86;64.03;101873.75;5030875;28;20048;-74
2022/09/04 13:41:14;;;;;;;10.10;7.75;;;;;;;22.83;62.48;101866.78;5049111;28;20206;-74
2022/09/04 13:44:07;;;;;;;9.40;7.45;;;;;;;22.84;63.29;101867.66;5030941;28;20084;-75
2022/09/04 13:47:05;;;;;;;9.18;7.88;;;;;;;22.83;62.00;101874.66;5024044;28;20059;-75
2022/09/04 13:49:48;;;;;;;8.25;6.80;;;;;;;22.83;62.51;101869.41;5031212;28;20045;-75
2022/09/04 13:52:26;;;;;;;9.05;6.57;;;;;;;22.83;62.35;101873.81;5035265;28;20045;-75
2022/09/04 13:55:03;;;;;;;8.75;6.40;;;;;;;22.86;62.92;101871.97;5030122;28;20521;-75
2022/09/04 14:00:01;;;;;;;8.95;6.50;;;;;;;22.85;60.91;101861.53;5047381;28;20755;-75
2022/09/04 14:02:29;;;;;;;7.05;6.35;;;;;;;22.85;61.07;101866.78;5032709;28;20100;-75
2022/09/04 14:05:04;;;;;;;6.68;6.07;;;;;;;22.86;62.52;101874.59;5048198;28;20128;-75
2022/09/04 14:10:03;;;;;;;6.82;5.95;;;;;;;22.87;61.40;101872.88;5047923;28;20045;-75
2022/09/04 14:15:20;;;;;;;7.30;5.80;;;;;;;22.86;61.37;101871.13;5048107;28;20060;-74
2022/09/04 14:18:04;;;;;;;6.72;5.78;;;;;;;22.85;61.46;101872.88;5047800;28;20430;-75
2022/09/04 14:22:58;;;;;;;7.78;5.65;;;;;;;22.85;62.35;101877.28;5047719;28;20932;-75
2022/09/04 14:28:19;;;;;;;7.28;5.78;;;;;;;22.85;61.06;101870.25;5039670;28;20095;-75
2022/09/04 14:31:06;;;;;;;6.80;6.10;;;;;;;22.88;60.11;101879.84;5029938;28;20399;-75
2022/09/04 14:33:53;;;;;;;8.85;6.28;;;;;;;22.87;61.58;101883.38;5048966;28;20123;-76
2022/09/04 14:36:21;;;;;;;6.60;5.93;;;;;;;22.87;60.75;101880.75;5030334;28;20126;-75
2022/09/04 14:39:04;;;;;;;7.15;5.32;;;;;;;22.89;60.61;101884.22;5029380;28;20049;-75
2022/09/04 14:44:19;;;;;;;6.32;5.72;;;;;;;22.90;60.77;101880.69;5047401;28;20053;-75
2022/09/04 14:46:50;;;;;;;6.63;5.35;;;;;;;22.91;60.58;101879.81;5029576;28;20036;-75
2022/09/04 14:49:23;;;;;;;8.25;5.65;;;;;;;22.91;61.02;101870.16;5049454;28;20072;-75
2022/09/04 14:51:55;;;;;;;7.22;5.97;;;;;;;22.90;59.61;101860.53;5029502;28;20507;-74
2022/09/04 14:54:28;;;;;;;5.80;5.30;;;;;;;22.93;59.68;101865.78;5049434;28;20041;-74
2022/09/04 14:57:10;;;;;;;6.38;5.60;;;;;;;22.91;59.48;101867.53;5047382;28;20415;-76
2022/09/04 14:59:55;;;;;;;6.00;5.03;;;;;;;22.92;59.78;101869.25;5030415;28;20442;-73
2022/09/04 15:05:02;;;;;;;6.07;5.07;;;;;;;22.93;59.63;101876.25;5039169;28;20049;-75
2022/09/04 15:13:23;;;;;;;6.10;5.32;;;;;;;22.97;58.31;101859.56;5038865;28;20052;-75
2022/09/04 15:15:55;;;;;;;6.80;5.60;;;;;;;23.02;58.57;101867.41;5029005;28;20510;-75
2022/09/04 15:18:29;;;;;;;6.00;5.28;;;;;;;23.01;58.60;101863.03;5031281;28;20442;-76
2022/09/04 15:21:17;;;;;;;5.95;5.30;;;;;;;23.03;58.42;101868.28;5029042;28;20426;-75
2022/09/04 15:23:53;;;;;;;5.57;4.93;;;;;;;23.02;58.66;101863.91;5029214;28;20045;-76
2022/09/04 15:26:28;;;;;;;6.32;5.40;;;;;;;23.02;58.38;101864.78;5049582;28;20640;-75
2022/09/04 15:29:10;;;;;;;7.95;6.43;;;;;;;23.03;58.38;101860.41;5029006;28;20057;-73
2022/09/04 15:31:40;;;;;;;5.93;5.32;;;;;;;23.03;58.45;101868.28;5047976;28;20487;-74
2022/09/04 15:34:09;;;;;;;5.10;4.60;;;;;;;23.02;58.72;101867.41;5048267;28;20407;-76
2022/09/04 15:36:36;;;;;;;5.15;4.65;;;;;;;22.99;59.42;101863.06;5030245;28;20053;-76
2022/09/04 15:39:05;;;;;;;4.97;4.47;;;;;;;22.99;58.80;101859.53;4998038;28;20049;-76
2022/09/04 15:44:15;;;;;;;4.72;4.32;;;;;;;22.98;58.76;101863.94;5038347;28;20469;-76
2022/09/04 15:47:01;;;;;;;5.93;5.00;;;;;;;22.97;59.40;101869.19;5029229;28;20045;-76
2022/09/04 15:52:29;;;;;;;6.00;4.50;;;;;;;22.97;58.44;101867.47;5046847;28;20053;-76
2022/09/04 15:55:17;;;;;;;7.65;4.50;;;;;;;22.98;59.13;101868.31;5011440;28;20141;-76
2022/09/04 15:57:47;;;;;;;5.28;4.50;;;;;;;23.02;59.43;101863.91;5046379;28;20057;-74
2022/09/04 16:00:16;;;;;;;7.20;4.93;;;;;;;23.01;58.75;101860.41;5031407;28;20144;-76